createdAt,value
2018-12-18T00:00:19.596Z,2.40
2018-12-18T00:02:50.719Z,2.40
2018-12-18T00:05:26.457Z,2.40
2018-12-18T00:07:55.825Z,2.30
2018-12-18T00:10:29.222Z,2.20
2018-12-18T00:12:58.626Z,2.10
2018-12-18T00:15:27.995Z,2.10
2018-12-18T00:17:57.283Z,2.00
2018-12-18T00:20:26.654Z,2.00
2018-12-18T00:22:56.146Z,2.10
2018-12-18T00:25:25.581Z,2.20
2018-12-18T00:27:54.874Z,2.30
2018-12-18T00:30:24.538Z,2.30
2018-12-18T00:32:53.822Z,2.40
2018-12-18T00:35:23.109Z,2.30
2018-12-18T00:37:52.471Z,2.30
2018-12-18T00:40:22.122Z,2.30
2018-12-18T00:45:54.650Z,2.40
2018-12-18T00:48:23.999Z,2.40
2018-12-18T00:50:53.284Z,2.30
2018-12-18T00:53:22.631Z,2.40
2018-12-18T00:55:52.031Z,2.30
2018-12-18T00:58:21.305Z,2.30
2018-12-18T01:00:50.752Z,2.30
2018-12-18T01:03:20.101Z,2.20
2018-12-18T01:05:49.544Z,2.20
2018-12-18T01:08:19.657Z,2.10
2018-12-18T01:10:49.080Z,2.00
2018-12-18T01:13:18.385Z,2.00
2018-12-18T01:15:47.962Z,2.00
2018-12-18T01:18:17.212Z,2.00
2018-12-18T01:20:46.497Z,2.00
2018-12-18T01:23:15.830Z,2.00
2018-12-18T01:25:45.174Z,2.00
2018-12-18T01:28:14.467Z,1.90
2018-12-18T01:30:43.813Z,1.80
2018-12-18T01:33:13.243Z,1.80
2018-12-18T01:35:42.570Z,1.70
2018-12-18T01:38:11.878Z,1.70
2018-12-18T01:40:41.181Z,2.80
2018-12-18T01:43:10.520Z,1.60
2018-12-18T01:45:39.783Z,1.70
2018-12-18T01:48:09.179Z,1.60
2018-12-18T01:50:38.511Z,1.80
2018-12-18T01:53:07.753Z,1.90
2018-12-18T01:55:37.069Z,2.00
2018-12-18T01:58:06.447Z,2.00
2018-12-18T02:00:35.663Z,1.90
2018-12-18T02:03:05.057Z,1.90
2018-12-18T02:05:34.302Z,2.10
2018-12-18T02:08:03.547Z,2.10
2018-12-18T02:10:32.862Z,2.00
2018-12-18T02:13:02.209Z,1.90
2018-12-18T02:15:31.412Z,1.90
2018-12-18T02:18:00.674Z,1.90
2018-12-18T02:20:30.000Z,1.90
2018-12-18T02:22:59.319Z,1.90
2018-12-18T02:25:28.643Z,1.90
2018-12-18T02:27:57.961Z,1.80
2018-12-18T02:30:27.273Z,1.70
2018-12-18T02:32:56.496Z,1.60
2018-12-18T02:35:25.764Z,1.40
2018-12-18T02:37:55.122Z,1.40
2018-12-18T02:40:24.430Z,1.50
2018-12-18T02:42:53.691Z,1.60
2018-12-18T02:45:23.011Z,1.60
2018-12-18T02:47:52.232Z,1.60
2018-12-18T02:50:21.572Z,1.60
2018-12-18T02:52:50.808Z,1.60
2018-12-18T02:55:20.122Z,1.60
2018-12-18T02:57:49.541Z,1.60
2018-12-18T03:00:18.854Z,1.50
2018-12-18T03:02:48.094Z,1.40
2018-12-18T03:05:17.589Z,1.30
2018-12-18T03:07:46.901Z,1.30
2018-12-18T03:10:16.125Z,1.20
2018-12-18T03:12:45.767Z,1.10
2018-12-18T03:15:15.205Z,1.10
2018-12-18T03:17:44.449Z,1.10
2018-12-18T03:20:13.854Z,1.10
2018-12-18T03:22:43.090Z,1.00
2018-12-18T03:25:12.570Z,1.00
2018-12-18T03:27:41.777Z,1.00
2018-12-18T03:30:11.119Z,1.00
2018-12-18T03:35:44.024Z,1.00
2018-12-18T03:38:13.261Z,1.00
2018-12-18T03:40:42.569Z,1.00
2018-12-18T03:43:12.079Z,1.00
2018-12-18T03:45:41.312Z,1.00
2018-12-18T03:48:10.639Z,1.00
2018-12-18T03:50:39.895Z,1.00
2018-12-18T03:53:09.216Z,1.00
2018-12-18T03:55:38.513Z,1.00
2018-12-18T03:58:08.403Z,1.00
2018-12-18T04:00:37.659Z,1.00
2018-12-18T04:03:06.990Z,1.10
2018-12-18T04:05:36.209Z,1.00
2018-12-18T04:08:05.558Z,1.00
2018-12-18T04:10:35.031Z,1.00
2018-12-18T04:13:04.406Z,0.90
2018-12-18T04:15:33.813Z,1.00
2018-12-18T04:18:03.074Z,1.00
2018-12-18T04:20:32.300Z,0.90
2018-12-18T04:23:01.548Z,0.90
2018-12-18T04:25:30.855Z,0.90
2018-12-18T04:28:00.119Z,0.90
2018-12-18T04:30:29.345Z,0.80
2018-12-18T04:32:58.609Z,0.80
2018-12-18T04:35:27.851Z,0.70
2018-12-18T04:37:57.108Z,0.70
2018-12-18T04:40:26.398Z,0.70
2018-12-18T04:42:56.146Z,0.60
2018-12-18T04:45:25.552Z,0.60
2018-12-18T04:47:55.145Z,0.60
2018-12-18T04:50:24.475Z,0.60
2018-12-18T04:52:53.730Z,0.50
2018-12-18T04:55:23.097Z,0.40
2018-12-18T04:57:52.335Z,0.30
2018-12-18T05:00:21.797Z,0.30
2018-12-18T05:02:51.045Z,0.20
2018-12-18T05:05:20.997Z,0.20
2018-12-18T05:07:50.462Z,0.20
2018-12-18T05:10:19.710Z,0.10
2018-12-18T05:12:49.002Z,0.00
2018-12-18T05:15:18.292Z,0.00
2018-12-18T05:17:47.559Z,0.00
2018-12-18T05:20:16.818Z,-0.10
2018-12-18T05:22:46.223Z,-0.10
2018-12-18T05:25:15.477Z,-0.10
2018-12-18T05:27:44.859Z,-0.10
2018-12-18T05:30:14.078Z,-0.10
2018-12-18T05:32:43.314Z,-0.10
2018-12-18T05:35:12.755Z,-0.10
2018-12-18T05:37:42.310Z,0.00
2018-12-18T05:40:11.729Z,0.00
2018-12-18T05:42:41.104Z,-0.10
2018-12-18T05:45:10.366Z,-0.10
2018-12-18T05:47:39.593Z,-0.20
2018-12-18T05:50:09.080Z,-0.20
2018-12-18T05:52:38.318Z,-0.20
2018-12-18T05:55:07.821Z,-0.20
2018-12-18T05:57:37.131Z,-0.10
2018-12-18T06:00:06.982Z,0.10
2018-12-18T06:02:36.299Z,0.10
2018-12-18T06:05:05.871Z,0.20
2018-12-18T06:07:35.103Z,0.30
2018-12-18T06:10:04.986Z,0.40
2018-12-18T06:12:34.257Z,0.40
2018-12-18T06:15:03.766Z,0.40
2018-12-18T06:17:33.007Z,0.50
2018-12-18T06:20:02.293Z,0.60
2018-12-18T06:22:32.458Z,0.50
2018-12-18T06:25:01.710Z,0.50
2018-12-18T06:30:32.964Z,0.50
2018-12-18T06:33:02.245Z,0.50
2018-12-18T06:35:31.518Z,0.50
2018-12-18T06:38:00.750Z,0.50
2018-12-18T06:40:30.289Z,0.40
2018-12-18T06:42:59.573Z,0.30
2018-12-18T06:45:28.906Z,0.20
2018-12-18T06:47:58.152Z,0.20
2018-12-18T06:50:27.385Z,0.20
2018-12-18T06:52:56.739Z,0.20
2018-12-18T06:55:26.127Z,0.20
2018-12-18T06:57:55.525Z,0.20
2018-12-18T07:00:25.392Z,0.30
2018-12-18T07:02:54.669Z,0.30
2018-12-18T07:05:24.105Z,0.40
2018-12-18T07:07:57.479Z,0.50
2018-12-18T07:10:25.088Z,0.50
2018-12-18T07:12:54.323Z,0.60
2018-12-18T07:15:23.651Z,0.60
2018-12-18T07:17:52.958Z,0.60
2018-12-18T07:20:23.382Z,0.60
2018-12-18T07:22:53.017Z,0.70
2018-12-18T07:25:22.377Z,0.70
2018-12-18T07:27:51.615Z,0.80
2018-12-18T07:30:20.992Z,0.80
2018-12-18T07:32:50.319Z,0.80
2018-12-18T07:35:23.198Z,0.80
2018-12-18T07:37:50.825Z,0.80
2018-12-18T07:40:20.125Z,0.80
2018-12-18T07:42:49.399Z,0.90
2018-12-18T07:45:18.883Z,0.90
2018-12-18T07:47:48.154Z,0.90
2018-12-18T07:50:17.460Z,0.90
2018-12-18T07:52:46.786Z,1.00
2018-12-18T07:55:16.137Z,1.10
2018-12-18T07:57:45.453Z,1.20
2018-12-18T08:00:15.003Z,1.20
2018-12-18T08:02:44.294Z,1.30
2018-12-18T08:05:13.839Z,1.30
2018-12-18T08:07:43.159Z,1.40
2018-12-18T08:10:12.524Z,1.40
2018-12-18T08:12:42.194Z,1.40
2018-12-18T08:15:11.591Z,1.30
2018-12-18T08:17:40.913Z,1.30
2018-12-18T08:20:10.435Z,1.30
2018-12-18T08:22:39.686Z,1.40
2018-12-18T08:25:09.188Z,1.40
2018-12-18T08:27:38.641Z,1.50
2018-12-18T08:30:09.337Z,1.60
2018-12-18T08:32:38.777Z,1.60
2018-12-18T08:35:08.260Z,1.70
2018-12-18T08:37:39.246Z,1.80
2018-12-18T08:40:09.323Z,1.80
2018-12-18T08:42:38.618Z,1.80
2018-12-18T08:45:09.540Z,1.80
2018-12-18T08:47:38.853Z,1.80
2018-12-18T08:50:09.995Z,1.80
2018-12-18T08:52:39.281Z,1.80
2018-12-18T08:55:08.732Z,1.80
2018-12-18T08:57:38.090Z,1.70
2018-12-18T09:00:09.238Z,1.70
2018-12-18T09:02:38.554Z,1.70
2018-12-18T09:05:08.416Z,1.70
2018-12-18T09:07:37.888Z,1.70
2018-12-18T09:10:09.701Z,1.80
2018-12-18T09:12:38.984Z,1.80
2018-12-18T09:15:14.024Z,1.90
2018-12-18T09:17:46.478Z,1.90
2018-12-18T09:20:16.067Z,2.00
2018-12-18T09:22:45.518Z,2.10
2018-12-18T09:25:14.901Z,2.10
2018-12-18T09:27:44.187Z,2.10
2018-12-18T09:30:13.637Z,2.10
2018-12-18T09:35:11.566Z,2.10
2018-12-18T09:37:42.805Z,2.10
2018-12-18T09:40:12.126Z,2.20
2018-12-18T09:42:46.714Z,2.20
2018-12-18T09:45:16.057Z,2.20
2018-12-18T09:47:45.445Z,2.30
2018-12-18T09:50:14.824Z,2.30
2018-12-18T09:52:44.282Z,2.30
2018-12-18T09:55:13.702Z,2.40
2018-12-18T09:57:48.217Z,2.50
2018-12-18T10:00:17.799Z,2.50
2018-12-18T10:02:47.241Z,2.50
2018-12-18T10:05:16.587Z,2.50
2018-12-18T10:07:45.895Z,2.50
2018-12-18T10:10:15.258Z,2.50
2018-12-18T10:15:51.630Z,2.60
2018-12-18T10:18:21.033Z,2.70
2018-12-18T10:20:50.478Z,2.80
2018-12-18T10:23:19.760Z,2.90
2018-12-18T10:25:49.110Z,2.90
2018-12-18T10:28:18.506Z,3.00
2018-12-18T10:30:47.866Z,3.10
2018-12-18T10:33:18.285Z,3.30
2018-12-18T10:35:47.835Z,3.40
2018-12-18T10:38:17.271Z,3.60
2018-12-18T10:40:46.576Z,3.90
2018-12-18T10:43:15.978Z,4.00
2018-12-18T10:45:45.308Z,4.20
2018-12-18T10:48:15.133Z,4.30
2018-12-18T10:50:43.568Z,4.40
2018-12-18T10:53:12.989Z,4.40
2018-12-18T10:55:42.276Z,4.30
2018-12-18T10:58:11.584Z,4.30
2018-12-18T11:00:46.124Z,4.30
2018-12-18T11:03:15.578Z,4.30
2018-12-18T11:05:45.052Z,4.30
2018-12-18T11:08:14.398Z,4.40
2018-12-18T11:10:43.827Z,4.40
2018-12-18T11:13:19.669Z,4.50
2018-12-18T11:15:49.007Z,4.70
2018-12-18T11:18:18.437Z,4.80
2018-12-18T11:20:48.145Z,4.90
2018-12-18T11:23:17.559Z,5.10
2018-12-18T11:25:47.002Z,5.00
2018-12-18T11:28:16.393Z,5.10
2018-12-18T11:30:45.717Z,4.90
2018-12-18T11:33:15.062Z,4.70
2018-12-18T11:35:44.447Z,4.50
2018-12-18T11:38:13.749Z,4.50
2018-12-18T11:40:43.197Z,4.40
2018-12-18T11:43:12.500Z,4.40
2018-12-18T11:45:42.079Z,4.40
2018-12-18T11:48:12.145Z,4.60
2018-12-18T11:50:41.517Z,4.90
2018-12-18T11:53:10.809Z,5.10
2018-12-18T11:55:40.921Z,5.30
2018-12-18T11:58:10.937Z,5.40
2018-12-18T12:00:40.381Z,5.50
2018-12-18T12:03:09.644Z,5.60
2018-12-18T12:05:39.102Z,5.70
2018-12-18T12:08:09.059Z,5.70
2018-12-18T12:10:38.484Z,5.80
2018-12-18T12:13:07.755Z,5.70
2018-12-18T12:15:37.185Z,5.50
2018-12-18T12:18:06.704Z,5.20
2018-12-18T12:20:36.021Z,5.10
2018-12-18T12:23:05.499Z,4.70
2018-12-18T12:25:34.909Z,4.50
2018-12-18T12:28:06.786Z,4.30
2018-12-18T12:30:36.680Z,4.10
2018-12-18T12:33:06.003Z,4.10
2018-12-18T12:35:35.361Z,4.20
2018-12-18T12:38:04.819Z,4.20
2018-12-18T12:40:34.276Z,4.10
2018-12-18T12:43:03.661Z,4.00
2018-12-18T12:45:33.179Z,3.90
2018-12-18T12:48:06.592Z,3.80
2018-12-18T12:50:36.007Z,3.70
2018-12-18T12:53:05.411Z,3.60
2018-12-18T12:55:35.298Z,3.60
2018-12-18T12:58:04.612Z,3.60
2018-12-18T13:00:34.070Z,3.60
2018-12-18T13:03:03.419Z,3.60
2018-12-18T13:05:32.717Z,3.50
2018-12-18T13:08:02.226Z,3.30
2018-12-18T13:10:31.497Z,3.20
2018-12-18T13:13:00.977Z,3.10
2018-12-18T13:15:30.439Z,3.00
2018-12-18T13:17:59.708Z,2.90
2018-12-18T13:20:29.138Z,3.00
2018-12-18T13:22:58.474Z,3.00
2018-12-18T13:25:28.287Z,3.10
2018-12-18T13:27:57.535Z,3.10
2018-12-18T13:30:26.970Z,3.00
2018-12-18T13:32:56.323Z,3.10
2018-12-18T13:35:25.646Z,3.10
2018-12-18T13:37:56.171Z,3.10
2018-12-18T13:40:25.640Z,3.20
2018-12-18T13:42:56.000Z,3.20
2018-12-18T13:45:25.367Z,3.30
2018-12-18T13:47:54.743Z,3.30
2018-12-18T13:50:24.126Z,3.30
2018-12-18T13:52:53.569Z,3.30
2018-12-18T13:55:23.068Z,3.40
2018-12-18T13:57:52.472Z,3.30
2018-12-18T14:00:21.790Z,3.40
2018-12-18T14:02:51.329Z,3.40
2018-12-18T14:05:20.678Z,3.40
2018-12-18T14:07:49.960Z,3.40
2018-12-18T14:10:19.941Z,3.30
2018-12-18T14:12:54.418Z,3.20
2018-12-18T14:15:23.868Z,3.20
2018-12-18T14:17:53.245Z,3.20
2018-12-18T14:20:22.819Z,3.20
2018-12-18T14:22:52.377Z,3.30
2018-12-18T14:25:21.779Z,3.20
2018-12-18T14:27:51.176Z,3.20
2018-12-18T14:30:20.584Z,3.10
2018-12-18T14:32:49.905Z,3.10
2018-12-18T14:35:19.310Z,3.10
2018-12-18T14:37:48.757Z,3.00
2018-12-18T14:40:18.100Z,3.00
2018-12-18T14:42:47.478Z,3.00
2018-12-18T14:45:19.744Z,3.00
2018-12-18T14:47:49.294Z,2.90
2018-12-18T14:50:18.965Z,2.90
2018-12-18T14:52:48.265Z,2.90
2018-12-18T14:55:17.813Z,2.90
2018-12-18T14:57:47.377Z,2.80
2018-12-18T15:00:16.779Z,2.80
2018-12-18T15:02:46.123Z,2.70
2018-12-18T15:05:15.405Z,2.60
2018-12-18T15:07:44.803Z,2.60
2018-12-18T15:10:14.171Z,2.60
2018-12-18T15:12:50.446Z,2.60
2018-12-18T15:15:20.101Z,2.60
2018-12-18T15:17:49.417Z,2.60
2018-12-18T15:20:18.830Z,2.60
2018-12-18T15:22:48.126Z,2.60
2018-12-18T15:25:17.366Z,2.60
2018-12-18T15:27:46.665Z,2.60
2018-12-18T15:30:16.080Z,2.60
2018-12-18T15:32:45.366Z,2.50
2018-12-18T15:35:14.911Z,2.60
2018-12-18T15:37:44.217Z,2.60
2018-12-18T15:40:13.547Z,2.60
2018-12-18T15:42:42.875Z,2.50
2018-12-18T15:45:12.664Z,2.50
2018-12-18T15:47:42.156Z,2.50
2018-12-18T15:50:11.469Z,2.50
2018-12-18T15:52:40.873Z,2.50
2018-12-18T15:55:10.360Z,2.40
2018-12-18T15:57:39.811Z,2.50
2018-12-18T16:00:09.627Z,2.50
2018-12-18T16:02:40.260Z,2.50
2018-12-18T16:05:09.829Z,2.50
2018-12-18T16:07:39.300Z,2.50
2018-12-18T16:10:10.027Z,2.50
2018-12-18T16:12:39.421Z,2.50
2018-12-18T16:15:09.155Z,2.50
2018-12-18T16:17:38.607Z,2.50
2018-12-18T16:20:08.735Z,2.50
2018-12-18T16:22:38.070Z,2.50
2018-12-18T16:25:07.844Z,2.50
2018-12-18T16:27:37.215Z,2.40
2018-12-18T16:30:07.060Z,2.40
2018-12-18T16:32:36.410Z,2.40
2018-12-18T16:35:06.094Z,2.40
2018-12-18T16:37:35.505Z,2.50
2018-12-18T16:40:05.335Z,2.40
2018-12-18T16:42:34.726Z,2.50
2018-12-18T16:45:04.414Z,2.50
2018-12-18T16:47:33.722Z,2.50
2018-12-18T16:50:03.159Z,2.50
2018-12-18T16:52:32.521Z,2.50
2018-12-18T16:55:01.797Z,2.50
2018-12-18T16:57:31.117Z,2.50
2018-12-18T17:00:00.658Z,2.50
2018-12-18T17:02:30.717Z,2.50
2018-12-18T17:05:00.013Z,2.50
2018-12-18T17:07:29.674Z,2.50
2018-12-18T17:09:59.945Z,2.50
2018-12-18T17:12:29.210Z,2.40
2018-12-18T17:14:58.516Z,2.40
2018-12-18T17:17:27.891Z,2.40
2018-12-18T17:19:57.250Z,2.40
2018-12-18T17:22:26.556Z,2.40
2018-12-18T17:24:55.946Z,2.40
2018-12-18T17:27:25.385Z,2.40
2018-12-18T17:29:54.761Z,2.40
2018-12-18T17:32:25.330Z,2.30
2018-12-18T17:34:54.911Z,2.40
2018-12-18T17:37:24.860Z,2.40
2018-12-18T17:39:54.313Z,2.40
2018-12-18T17:42:23.612Z,2.40
2018-12-18T17:44:52.975Z,2.40
2018-12-18T17:47:22.257Z,2.30
2018-12-18T17:49:51.663Z,2.30
2018-12-18T17:52:21.347Z,2.30
2018-12-18T17:54:50.729Z,2.30
2018-12-18T17:57:20.133Z,2.30
2018-12-18T17:59:49.556Z,2.30
2018-12-18T18:02:18.813Z,2.40
2018-12-18T18:04:48.173Z,2.40
2018-12-18T18:07:17.557Z,2.30
2018-12-18T18:09:46.898Z,2.30
2018-12-18T18:12:16.277Z,2.30
2018-12-18T18:14:45.605Z,2.30
2018-12-18T18:17:14.950Z,2.30
2018-12-18T18:19:44.414Z,2.30
2018-12-18T18:22:13.788Z,2.30
2018-12-18T18:24:43.400Z,2.40
2018-12-18T18:27:12.786Z,2.30
2018-12-18T18:29:42.181Z,2.30
2018-12-18T18:32:11.709Z,2.30
2018-12-18T18:34:40.994Z,2.30
2018-12-18T18:37:10.487Z,2.30
2018-12-18T18:39:39.898Z,2.30
2018-12-18T18:42:09.998Z,2.30
2018-12-18T18:44:39.329Z,2.30
2018-12-18T18:47:08.710Z,2.30
2018-12-18T18:49:38.105Z,2.30
2018-12-18T18:52:07.618Z,2.30
2018-12-18T18:54:36.941Z,2.20
2018-12-18T18:57:06.334Z,2.20
2018-12-18T18:59:35.841Z,2.20
2018-12-18T19:02:05.179Z,2.20
2018-12-18T19:04:34.878Z,2.20
2018-12-18T19:07:04.409Z,2.20
2018-12-18T19:09:33.823Z,2.20
2018-12-18T19:12:03.249Z,2.20
2018-12-18T19:14:32.642Z,2.20
2018-12-18T19:17:02.140Z,2.20
2018-12-18T19:19:31.847Z,2.10
2018-12-18T19:25:03.306Z,2.10
2018-12-18T19:27:32.861Z,2.00
2018-12-18T19:30:02.304Z,2.00
2018-12-18T19:32:31.701Z,2.00
2018-12-18T19:35:03.505Z,2.00
2018-12-18T19:37:33.506Z,1.90
2018-12-18T19:40:03.141Z,1.90
2018-12-18T19:42:33.086Z,1.90
2018-12-18T19:45:02.662Z,1.80
2018-12-18T19:47:32.238Z,1.90
2018-12-18T19:50:01.760Z,1.90
2018-12-18T19:52:31.118Z,1.80
2018-12-18T19:55:00.430Z,1.90
2018-12-18T19:57:30.011Z,1.90
2018-12-18T19:59:59.554Z,1.90
2018-12-18T20:02:29.842Z,1.80
2018-12-18T20:04:59.340Z,1.90
2018-12-18T20:07:28.837Z,1.80
2018-12-18T20:09:58.807Z,1.80
2018-12-18T20:12:28.465Z,1.70
2018-12-18T20:14:57.827Z,1.80
2018-12-18T20:17:28.055Z,1.80
2018-12-18T20:19:57.618Z,1.80
2018-12-18T20:22:27.291Z,1.70
2018-12-18T20:24:56.665Z,1.70
2018-12-18T20:27:26.211Z,1.70
2018-12-18T20:29:55.602Z,1.60
2018-12-18T20:32:25.263Z,1.60
2018-12-18T20:34:55.014Z,1.50
2018-12-18T20:37:24.748Z,1.60
2018-12-18T20:39:54.573Z,1.60
2018-12-18T20:42:24.211Z,1.50
2018-12-18T20:44:53.553Z,1.50
2018-12-18T20:47:22.902Z,1.50
2018-12-18T20:49:52.530Z,1.50
2018-12-18T20:52:22.193Z,1.50
2018-12-18T20:54:51.470Z,1.50
2018-12-18T20:57:20.911Z,1.50
2018-12-18T20:59:50.286Z,1.50
2018-12-18T21:02:19.897Z,1.50
2018-12-18T21:04:49.561Z,1.50
2018-12-18T21:07:19.313Z,1.50
2018-12-18T21:09:50.170Z,1.40
2018-12-18T21:12:19.850Z,1.40
2018-12-18T21:14:49.345Z,1.50
2018-12-18T21:17:18.903Z,1.40
2018-12-18T21:19:48.441Z,1.50
2018-12-18T21:22:18.467Z,1.40
2018-12-18T21:24:48.055Z,1.40
2018-12-18T21:27:17.549Z,1.40
2018-12-18T21:29:47.094Z,1.30
2018-12-18T21:32:16.604Z,1.30
2018-12-18T21:34:46.075Z,1.30
2018-12-18T21:37:15.581Z,1.20
2018-12-18T21:39:45.084Z,1.20
2018-12-18T21:45:16.602Z,1.10
2018-12-18T21:47:46.173Z,1.10
2018-12-18T21:50:15.645Z,1.10
2018-12-18T21:52:45.236Z,1.10
2018-12-18T21:55:14.854Z,1.20
2018-12-18T21:57:44.394Z,1.20
2018-12-18T22:00:13.987Z,1.20
2018-12-18T22:02:43.522Z,1.20
2018-12-18T22:05:13.011Z,1.30
2018-12-18T22:07:42.579Z,1.20
2018-12-18T22:10:12.110Z,1.30
2018-12-18T22:12:41.836Z,1.30
2018-12-18T22:15:12.255Z,1.30
2018-12-18T22:17:41.801Z,1.30
2018-12-18T22:20:11.351Z,1.30
2018-12-18T22:22:40.964Z,1.30
2018-12-18T22:25:10.386Z,1.30
2018-12-18T22:27:39.690Z,1.30
2018-12-18T22:30:09.700Z,1.30
2018-12-18T22:32:39.078Z,1.30
2018-12-18T22:35:08.781Z,1.30
2018-12-18T22:37:38.242Z,1.30
2018-12-18T22:40:07.757Z,1.30
2018-12-18T22:42:37.146Z,1.30
2018-12-18T22:45:07.179Z,1.30
2018-12-18T22:47:36.550Z,1.30
2018-12-18T22:50:07.692Z,1.30
2018-12-18T22:52:37.005Z,1.30
2018-12-18T22:55:06.893Z,1.30
2018-12-18T22:57:36.234Z,1.30
2018-12-18T23:00:08.859Z,1.30
2018-12-18T23:02:38.310Z,1.30
2018-12-18T23:05:10.333Z,1.40
2018-12-18T23:07:39.686Z,1.40
2018-12-18T23:10:09.213Z,1.40
2018-12-18T23:12:38.643Z,1.40
2018-12-18T23:15:08.426Z,0.50
2018-12-18T23:17:37.801Z,1.40
2018-12-18T23:20:07.419Z,1.40
2018-12-18T23:22:36.913Z,1.40
2018-12-18T23:25:07.973Z,1.50
2018-12-18T23:27:37.313Z,1.50
2018-12-18T23:30:07.087Z,1.50
2018-12-18T23:32:42.680Z,1.50
2018-12-18T23:35:11.961Z,1.50
2018-12-18T23:37:41.325Z,1.50
2018-12-18T23:40:10.726Z,1.50
2018-12-18T23:42:40.098Z,1.50
2018-12-18T23:45:09.571Z,1.50
2018-12-18T23:47:38.958Z,1.50
2018-12-18T23:50:07.994Z,1.50
2018-12-18T23:52:37.358Z,1.50
2018-12-18T23:55:07.105Z,1.50
2018-12-18T23:57:36.425Z,1.50
